Time;durP1;ratioP1;P1;durP2;ratioP2;P2;SDS_P1;SDS_P2;PMS_P1;PMS_P2;Temp;Humidity;BMP_temperature;BMP_pressure;BME280_temperature;BME280_humidity;BME280_pressure;Samples;Min_cycle;Max_cycle;Signal;HPM_P1;HPM_P2
2022/08/21 00:02:00;;;;;;;30.75;19.50;;;;;;;;;;5073268;28;20074;-70
2022/08/21 00:04:26;;;;;;;28.60;19.98;;;;;;;;;;5078156;28;20060;-73
2022/08/21 00:06:53;;;;;;;31.80;21.30;;;;;;;;;;5075613;28;20482;-73
2022/08/21 00:09:19;;;;;;;28.27;20.58;;;;;;;;;;5084431;28;20032;-71
2022/08/21 00:11:46;;;;;;;31.55;22.30;;;;;;;;;;5061615;28;20418;-73
2022/08/21 00:14:13;;;;;;;28.65;20.65;;;;;;;;;;5084047;28;20023;-70
2022/08/21 00:16:39;;;;;;;26.98;19.52;;;;;;;;;;5080214;28;20099;-76
2022/08/21 00:19:06;;;;;;;32.15;22.17;;;;;;;;;;5081256;28;20020;-76
2022/08/21 00:21:33;;;;;;;29.00;20.63;;;;;;;;;;5074224;28;20058;-70
2022/08/21 00:23:59;;;;;;;27.58;20.20;;;;;;;;;;5068506;28;20115;-72
2022/08/21 00:26:26;;;;;;;25.85;20.17;;;;;;;;;;5072831;28;20023;-77
2022/08/21 00:28:52;;;;;;;24.73;19.20;;;;;;;;;;5078620;28;20068;-70
2022/08/21 00:31:18;;;;;;;23.98;18.40;;;;;;;;;;5074837;28;20046;-70
2022/08/21 00:33:45;;;;;;;9.73;7.05;;;;;;;;;;5070915;28;20020;-70
2022/08/21 00:36:13;;;;;;;9.90;6.75;;;;;;;;;;5080009;28;20055;-71
2022/08/21 00:38:39;;;;;;;6.57;4.70;;;;;;;;;;5075684;28;20087;-69
2022/08/21 00:41:07;;;;;;;7.47;3.75;;;;;;;;;;5065408;28;20071;-70
2022/08/21 00:43:35;;;;;;;4.85;2.58;;;;;;;;;;5071467;28;20024;-75
2022/08/21 00:46:01;;;;;;;33.35;6.65;;;;;;;;;;5080489;28;20031;-71
2022/08/21 00:48:28;;;;;;;22.98;5.55;;;;;;;;;;5077683;28;20025;-71
2022/08/21 00:51:06;;;;;;;20.70;5.78;;;;;;;;;;5073290;28;20104;-71
2022/08/21 00:53:32;;;;;;;24.92;6.85;;;;;;;;;;5072769;28;20063;-70
2022/08/21 00:55:59;;;;;;;19.60;5.50;;;;;;;;;;5075848;28;20025;-73
2022/08/21 00:58:26;;;;;;;22.75;8.85;;;;;;;;;;5073439;28;20056;-72
2022/08/21 01:00:53;;;;;;;19.40;9.90;;;;;;;;;;5070898;28;20017;-71
2022/08/21 01:03:20;;;;;;;15.70;6.45;;;;;;;;;;5076194;28;20020;-75
2022/08/21 01:05:47;;;;;;;12.13;5.60;;;;;;;;;;5088938;28;20065;-72
2022/08/21 01:08:14;;;;;;;18.20;6.82;;;;;;;;;;5081166;28;20021;-71
2022/08/21 01:10:40;;;;;;;17.08;6.13;;;;;;;;;;5071263;28;20033;-75
2022/08/21 01:13:08;;;;;;;15.65;6.65;;;;;;;;;;5076779;28;20051;-71
2022/08/21 01:15:35;;;;;;;20.23;7.53;;;;;;;;;;5081916;28;20498;-74
2022/08/21 01:18:03;;;;;;;12.60;7.15;;;;;;;;;;5082998;28;20470;-74
2022/08/21 01:20:29;;;;;;;23.50;7.78;;;;;;;;;;5078564;28;20028;-70
2022/08/21 01:22:57;;;;;;;35.35;9.27;;;;;;;;;;5077203;28;20028;-70
2022/08/21 01:25:26;;;;;;;28.02;8.55;;;;;;;;;;5081522;28;20024;-70
2022/08/21 01:27:52;;;;;;;14.13;6.45;;;;;;;;;;5084215;28;20054;-71
2022/08/21 01:30:20;;;;;;;14.00;6.18;;;;;;;;;;5076726;28;20131;-72
2022/08/21 01:32:47;;;;;;;19.23;6.53;;;;;;;;;;5088890;28;20025;-70
2022/08/21 01:35:14;;;;;;;14.05;5.50;;;;;;;;;;5085718;28;20132;-74
2022/08/21 01:37:40;;;;;;;7.85;4.45;;;;;;;;;;5085291;28;20016;-73
2022/08/21 01:40:10;;;;;;;9.52;5.15;;;;;;;;;;5076643;28;20033;-69
2022/08/21 01:42:36;;;;;;;8.02;4.75;;;;;;;;;;5088468;28;20039;-71
2022/08/21 01:45:03;;;;;;;11.38;5.00;;;;;;;;;;5087799;28;20036;-74
2022/08/21 01:47:36;;;;;;;9.48;5.40;;;;;;;;;;5085382;28;20469;-70
2022/08/21 01:50:04;;;;;;;8.13;4.90;;;;;;;;;;5073684;28;20425;-72
2022/08/21 01:52:30;;;;;;;9.77;5.10;;;;;;;;;;5078217;28;20052;-69
2022/08/21 01:54:56;;;;;;;8.07;4.88;;;;;;;;;;5068909;28;20360;-70
2022/08/21 01:57:22;;;;;;;6.82;4.28;;;;;;;;;;5081955;28;20874;-70
2022/08/21 01:59:48;;;;;;;7.65;4.45;;;;;;;;;;5075374;28;20064;-77
2022/08/21 02:02:14;;;;;;;7.53;4.65;;;;;;;;;;5074896;28;20470;-78
2022/08/21 02:04:40;;;;;;;8.25;4.43;;;;;;;;;;5085151;28;20060;-70
2022/08/21 02:07:06;;;;;;;9.07;4.95;;;;;;;;;;5085143;28;20021;-70
2022/08/21 02:09:33;;;;;;;9.65;4.65;;;;;;;;;;5075461;28;20032;-70
2022/08/21 02:11:59;;;;;;;8.07;4.85;;;;;;;;;;5075920;28;20051;-70
2022/08/21 02:14:25;;;;;;;6.97;4.63;;;;;;;;;;5086010;28;20355;-70
2022/08/21 02:16:52;;;;;;;7.53;4.53;;;;;;;;;;5081161;28;20036;-72
2022/08/21 02:19:18;;;;;;;8.00;5.00;;;;;;;;;;5080486;28;20039;-69
2022/08/21 02:21:45;;;;;;;8.18;5.15;;;;;;;;;;5074423;28;20047;-71
2022/08/21 02:24:11;;;;;;;12.25;6.63;;;;;;;;;;5085144;28;20378;-74
2022/08/21 02:26:37;;;;;;;10.93;5.95;;;;;;;;;;5082921;28;20020;-70
2022/08/21 02:29:04;;;;;;;9.15;6.15;;;;;;;;;;5082113;28;20036;-72
2022/08/21 02:31:31;;;;;;;10.35;6.15;;;;;;;;;;5080391;28;20035;-70
2022/08/21 02:33:57;;;;;;;10.35;6.43;;;;;;;;;;5092053;28;20420;-69
2022/08/21 02:36:23;;;;;;;13.02;6.57;;;;;;;;;;5076047;28;20478;-70
2022/08/21 02:38:49;;;;;;;10.93;6.75;;;;;;;;;;5077314;28;20042;-76
2022/08/21 02:41:16;;;;;;;9.13;6.05;;;;;;;;;;5079698;28;20030;-72
2022/08/21 02:43:43;;;;;;;10.55;6.45;;;;;;;;;;5083051;28;20070;-76
2022/08/21 02:46:11;;;;;;;10.10;6.95;;;;;;;;;;5081707;28;20028;-76
2022/08/21 02:48:38;;;;;;;16.27;10.48;;;;;;;;;;5078784;28;20028;-70
2022/08/21 02:51:10;;;;;;;13.70;9.68;;;;;;;;;;5075853;28;21639;-72
2022/08/21 02:53:38;;;;;;;15.27;10.90;;;;;;;;;;5078767;28;20048;-70
2022/08/21 02:56:07;;;;;;;16.10;12.25;;;;;;;;;;5084696;28;20105;-72
2022/08/21 02:58:40;;;;;;;15.43;11.73;;;;;;;;;;5078289;28;20110;-70
2022/08/21 03:01:09;;;;;;;21.35;12.48;;;;;;;;;;5076535;28;20063;-72
2022/08/21 03:03:35;;;;;;;19.10;12.60;;;;;;;;;;5079809;28;20032;-71
2022/08/21 03:06:04;;;;;;;18.60;13.43;;;;;;;;;;5081425;28;20108;-71
2022/08/21 03:08:30;;;;;;;19.08;14.10;;;;;;;;;;5074936;28;20049;-70
2022/08/21 03:10:56;;;;;;;20.35;14.60;;;;;;;;;;5074344;28;20040;-72
2022/08/21 03:13:23;;;;;;;23.45;16.33;;;;;;;;;;5078607;28;20055;-71
2022/08/21 03:15:50;;;;;;;27.77;17.05;;;;;;;;;;5087960;28;20062;-71
2022/08/21 03:18:16;;;;;;;32.92;20.02;;;;;;;;;;5079757;28;20082;-73
2022/08/21 03:20:44;;;;;;;26.02;19.42;;;;;;;;;;5076489;28;20089;-71
2022/08/21 03:23:13;;;;;;;32.67;21.08;;;;;;;;;;5074057;28;20056;-73
2022/08/21 03:25:39;;;;;;;31.77;20.60;;;;;;;;;;5074725;28;20031;-73
2022/08/21 03:28:10;;;;;;;34.78;21.10;;;;;;;;;;5078766;28;20056;-72
2022/08/21 03:30:36;;;;;;;31.52;21.52;;;;;;;;;;5074929;28;20508;-72
2022/08/21 03:33:02;;;;;;;31.33;21.20;;;;;;;;;;5075335;28;20471;-73
2022/08/21 03:35:29;;;;;;;28.73;19.80;;;;;;;;;;5076764;28;20028;-72
2022/08/21 03:37:55;;;;;;;31.15;21.48;;;;;;;;;;5078826;28;20059;-70
2022/08/21 03:40:24;;;;;;;29.65;21.20;;;;;;;;;;5076763;28;20070;-70
2022/08/21 03:42:51;;;;;;;32.65;21.35;;;;;;;;;;5073918;28;20078;-71
2022/08/21 03:45:18;;;;;;;37.40;23.85;;;;;;;;;;5077775;28;20027;-70
2022/08/21 03:47:53;;;;;;;32.42;23.00;;;;;;;;;;5083688;28;20024;-71
2022/08/21 03:50:20;;;;;;;38.13;22.55;;;;;;;;;;5074502;28;20040;-70
2022/08/21 03:52:46;;;;;;;32.55;22.85;;;;;;;;;;5073369;28;20470;-70
2022/08/21 03:55:12;;;;;;;33.50;22.63;;;;;;;;;;5084060;28;20024;-74
2022/08/21 03:57:38;;;;;;;28.17;20.95;;;;;;;;;;5079240;28;20035;-70
2022/08/21 04:00:08;;;;;;;28.35;20.73;;;;;;;;;;5075693;28;20048;-71
2022/08/21 04:02:35;;;;;;;29.67;21.02;;;;;;;;;;5071897;28;20063;-71
2022/08/21 04:05:01;;;;;;;30.23;19.52;;;;;;;;;;5075923;28;20129;-77
2022/08/21 04:07:29;;;;;;;30.80;19.45;;;;;;;;;;5078816;28;20065;-71
2022/08/21 04:09:55;;;;;;;25.38;18.98;;;;;;;;;;5066961;28;20158;-70
2022/08/21 04:12:21;;;;;;;26.40;18.88;;;;;;;;;;5063295;28;20149;-71
2022/08/21 04:14:51;;;;;;;24.20;18.20;;;;;;;;;;5068193;28;20024;-71
2022/08/21 04:17:19;;;;;;;24.52;18.35;;;;;;;;;;5071422;28;20039;-74
2022/08/21 04:19:46;;;;;;;23.73;18.23;;;;;;;;;;5055674;28;20513;-71
2022/08/21 04:22:12;;;;;;;24.05;18.52;;;;;;;;;;5069412;28;20027;-71
2022/08/21 04:24:40;;;;;;;26.95;18.65;;;;;;;;;;5081355;28;20066;-69
2022/08/21 04:27:06;;;;;;;27.02;19.70;;;;;;;;;;5079639;28;20491;-72
2022/08/21 04:29:32;;;;;;;24.75;19.17;;;;;;;;;;5071515;28;20036;-70
2022/08/21 04:31:59;;;;;;;31.13;21.83;;;;;;;;;;5074975;28;20029;-75
2022/08/21 04:34:25;;;;;;;27.05;21.50;;;;;;;;;;5074407;28;20112;-71
2022/08/21 04:36:51;;;;;;;27.90;20.35;;;;;;;;;;5066063;28;20036;-73
2022/08/21 04:39:19;;;;;;;27.50;22.58;;;;;;;;;;5077612;28;20059;-74
2022/08/21 04:41:45;;;;;;;31.08;22.13;;;;;;;;;;5079659;28;20550;-72
2022/08/21 04:44:14;;;;;;;28.90;22.95;;;;;;;;;;5073566;28;20406;-75
2022/08/21 04:46:40;;;;;;;30.55;23.08;;;;;;;;;;5064239;28;20032;-70
2022/08/21 04:49:06;;;;;;;28.38;22.25;;;;;;;;;;5083122;28;20028;-70
2022/08/21 04:51:37;;;;;;;28.55;22.33;;;;;;;;;;5072113;28;20028;-72
2022/08/21 04:54:12;;;;;;;29.50;22.92;;;;;;;;;;5063237;28;20505;-74
2022/08/21 04:56:45;;;;;;;30.00;23.30;;;;;;;;;;5071249;28;20099;-75
2022/08/21 04:59:15;;;;;;;38.58;23.42;;;;;;;;;;5068183;28;20044;-78
2022/08/21 05:01:43;;;;;;;30.27;23.70;;;;;;;;;;5069885;28;20136;-80
2022/08/21 05:04:11;;;;;;;33.55;24.90;;;;;;;;;;5072335;28;20071;-71
2022/08/21 05:06:38;;;;;;;33.88;24.92;;;;;;;;;;5082642;28;20017;-72
2022/08/21 05:09:05;;;;;;;43.38;26.55;;;;;;;;;;5080036;28;20020;-73
2022/08/21 05:11:32;;;;;;;34.17;26.33;;;;;;;;;;5081354;28;20032;-76
2022/08/21 05:13:58;;;;;;;35.72;25.75;;;;;;;;;;5081184;28;20541;-81
2022/08/21 05:16:24;;;;;;;40.85;27.00;;;;;;;;;;5077528;28;20099;-78
2022/08/21 05:18:51;;;;;;;41.05;26.45;;;;;;;;;;5078273;28;20066;-73
2022/08/21 05:21:17;;;;;;;32.22;23.20;;;;;;;;;;5075371;28;20420;-71
2022/08/21 05:23:43;;;;;;;26.40;19.55;;;;;;;;;;5071010;28;20055;-75
2022/08/21 05:26:09;;;;;;;25.48;19.70;;;;;;;;;;5076583;28;20078;-73
2022/08/21 05:28:35;;;;;;;27.30;19.15;;;;;;;;;;5072536;28;20029;-71
2022/08/21 05:31:01;;;;;;;22.40;18.95;;;;;;;;;;5075772;28;20086;-73
2022/08/21 05:33:27;;;;;;;23.42;19.08;;;;;;;;;;5083376;28;20024;-71
2022/08/21 05:35:55;;;;;;;22.23;19.25;;;;;;;;;;5086620;28;20095;-75
2022/08/21 05:38:21;;;;;;;28.52;20.77;;;;;;;;;;5072486;28;20016;-81
2022/08/21 05:40:48;;;;;;;25.50;20.00;;;;;;;;;;5074691;28;20028;-74
2022/08/21 05:43:14;;;;;;;23.70;19.30;;;;;;;;;;5069689;28;20043;-74
2022/08/21 05:45:41;;;;;;;22.98;20.13;;;;;;;;;;5071394;28;20036;-79
2022/08/21 05:48:08;;;;;;;21.30;18.60;;;;;;;;;;5071981;28;20021;-83
2022/08/21 05:50:34;;;;;;;23.42;20.80;;;;;;;;;;5073802;28;20508;-77
2022/08/21 05:53:01;;;;;;;23.77;20.60;;;;;;;;;;5075713;28;20500;-82
2022/08/21 05:55:27;;;;;;;25.05;21.73;;;;;;;;;;5083262;28;20039;-69
2022/08/21 05:57:55;;;;;;;26.30;21.60;;;;;;;;;;5084032;28;20484;-84
2022/08/21 06:00:22;;;;;;;25.50;20.08;;;;;;;;;;5067059;28;20052;-75
2022/08/21 06:02:50;;;;;;;28.05;21.08;;;;;;;;;;5072259;28;20021;-76
2022/08/21 06:05:16;;;;;;;23.58;20.77;;;;;;;;;;5076267;28;20038;-76
2022/08/21 06:07:42;;;;;;;24.23;21.27;;;;;;;;;;5076541;28;20095;-73
2022/08/21 06:10:08;;;;;;;25.33;21.30;;;;;;;;;;5070912;28;20048;-69
2022/08/21 06:12:34;;;;;;;26.45;20.73;;;;;;;;;;5078834;28;20099;-80
2022/08/21 06:15:00;;;;;;;23.27;20.90;;;;;;;;;;5072552;28;20032;-82
2022/08/21 06:17:29;;;;;;;23.42;20.63;;;;;;;;;;5074302;28;20024;-77
2022/08/21 06:19:55;;;;;;;25.58;21.90;;;;;;;;;;5084263;28;20086;-81
2022/08/21 06:22:21;;;;;;;26.38;20.88;;;;;;;;;;5079446;28;20017;-80
2022/08/21 06:24:48;;;;;;;24.65;21.08;;;;;;;;;;5078907;28;20028;-81
2022/08/21 06:27:15;;;;;;;21.95;19.63;;;;;;;;;;5072263;28;20074;-80
2022/08/21 06:29:44;;;;;;;22.70;20.30;;;;;;;;;;5064681;28;20052;-84
2022/08/21 06:32:14;;;;;;;22.55;20.20;;;;;;;;;;5068725;28;20045;-81
2022/08/21 06:34:41;;;;;;;23.95;20.35;;;;;;;;;;5071143;28;20041;-77
2022/08/21 06:37:08;;;;;;;24.55;21.15;;;;;;;;;;5066201;28;20028;-82
2022/08/21 06:39:34;;;;;;;23.65;20.92;;;;;;;;;;5077073;28;20032;-73
2022/08/21 06:42:01;;;;;;;21.85;19.55;;;;;;;;;;5075344;28;20473;-76
2022/08/21 06:44:27;;;;;;;23.27;19.40;;;;;;;;;;5074482;28;20028;-81
2022/08/21 06:46:53;;;;;;;24.42;20.20;;;;;;;;;;5072782;28;20075;-81
2022/08/21 06:49:19;;;;;;;22.02;18.70;;;;;;;;;;5070157;28;20024;-81
2022/08/21 06:51:45;;;;;;;23.02;18.20;;;;;;;;;;5068962;28;20033;-78
2022/08/21 06:54:11;;;;;;;21.90;19.55;;;;;;;;;;5084416;28;20032;-75
2022/08/21 06:56:38;;;;;;;20.80;18.00;;;;;;;;;;5079987;28;20456;-76
2022/08/21 06:59:05;;;;;;;21.88;19.10;;;;;;;;;;5082043;28;20452;-75
2022/08/21 07:01:31;;;;;;;19.00;17.00;;;;;;;;;;5082324;28;20028;-84
2022/08/21 07:03:57;;;;;;;22.60;19.27;;;;;;;;;;5071571;28;20060;-83
2022/08/21 07:06:23;;;;;;;20.75;17.60;;;;;;;;;;5078653;28;20020;-77
2022/08/21 07:08:49;;;;;;;21.13;18.33;;;;;;;;;;5063017;28;20036;-82
2022/08/21 07:11:18;;;;;;;18.00;16.10;;;;;;;;;;5063929;28;20032;-80
2022/08/21 07:13:44;;;;;;;18.30;16.27;;;;;;;;;;5071138;28;20049;-78
2022/08/21 07:16:10;;;;;;;18.95;15.77;;;;;;;;;;5077284;28;20036;-76
2022/08/21 07:18:36;;;;;;;16.48;14.60;;;;;;;;;;5068798;28;20550;-74
2022/08/21 07:21:04;;;;;;;14.63;12.63;;;;;;;;;;5073161;28;20033;-75
2022/08/21 07:23:32;;;;;;;15.25;13.23;;;;;;;;;;5070632;28;20023;-75
2022/08/21 07:26:00;;;;;;;18.63;14.52;;;;;;;;;;5066221;28;20048;-77
2022/08/21 07:28:26;;;;;;;16.30;13.50;;;;;;;;;;5080635;28;20052;-82
2022/08/21 07:30:57;;;;;;;16.23;14.05;;;;;;;;;;5081424;28;20052;-75
2022/08/21 07:33:24;;;;;;;15.05;12.95;;;;;;;;;;5064779;28;20012;-77
2022/08/21 07:35:50;;;;;;;15.43;13.82;;;;;;;;;;5070945;28;20099;-80
2022/08/21 07:38:18;;;;;;;14.43;12.57;;;;;;;;;;5080679;28;20024;-73
2022/08/21 07:40:44;;;;;;;14.30;12.45;;;;;;;;;;5077017;28;20025;-80
2022/08/21 07:43:11;;;;;;;14.32;12.05;;;;;;;;;;5076179;28;20032;-74
2022/08/21 07:45:37;;;;;;;13.13;11.40;;;;;;;;;;5088962;28;20028;-90
2022/08/21 07:48:03;;;;;;;14.40;12.10;;;;;;;;;;5079865;28;20043;-86
2022/08/21 07:50:29;;;;;;;14.57;12.27;;;;;;;;;;5074607;28;20044;-80
2022/08/21 07:53:02;;;;;;;14.10;12.63;;;;;;;;;;5071347;28;20428;-81
2022/08/21 07:55:28;;;;;;;15.23;12.55;;;;;;;;;;5068903;28;20035;-81
2022/08/21 07:57:54;;;;;;;15.65;12.75;;;;;;;;;;5075291;28;20032;-79
2022/08/21 08:00:22;;;;;;;13.30;11.63;;;;;;;;;;5072056;28;20581;-75
2022/08/21 08:02:50;;;;;;;12.85;11.02;;;;;;;;;;5069535;28;20103;-75
2022/08/21 08:05:16;;;;;;;13.02;11.32;;;;;;;;;;5066671;28;20067;-75
2022/08/21 08:07:43;;;;;;;12.15;10.82;;;;;;;;;;5073615;28;20021;-79
2022/08/21 08:10:10;;;;;;;12.73;10.48;;;;;;;;;;5070269;28;20054;-79
2022/08/21 08:12:37;;;;;;;14.38;10.63;;;;;;;;;;5071194;28;20140;-72
2022/08/21 08:15:03;;;;;;;12.75;10.05;;;;;;;;;;5071145;28;20029;-75
2022/08/21 08:17:31;;;;;;;14.05;10.65;;;;;;;;;;5062052;28;20028;-79
2022/08/21 08:19:58;;;;;;;13.45;10.40;;;;;;;;;;5059758;28;20065;-77
2022/08/21 08:22:24;;;;;;;11.85;10.18;;;;;;;;;;5072226;28;20025;-77
2022/08/21 08:24:52;;;;;;;15.50;10.07;;;;;;;;;;5072371;28;20028;-78
2022/08/21 08:27:18;;;;;;;12.38;9.90;;;;;;;;;;5056150;28;20383;-77
2022/08/21 08:29:44;;;;;;;11.20;9.65;;;;;;;;;;5068768;28;20032;-78
2022/08/21 08:32:11;;;;;;;10.20;8.93;;;;;;;;;;5072043;28;20034;-79
2022/08/21 08:34:38;;;;;;;10.13;8.52;;;;;;;;;;5066052;28;20407;-80
2022/08/21 08:37:04;;;;;;;13.23;9.13;;;;;;;;;;5072214;28;20082;-78
2022/08/21 08:39:32;;;;;;;12.30;9.02;;;;;;;;;;5062875;28;20023;-80
2022/08/21 08:42:09;;;;;;;11.30;7.80;;;;;;;;;;5071541;28;20454;-80
2022/08/21 08:44:35;;;;;;;8.98;8.07;;;;;;;;;;5071490;28;20044;-81
2022/08/21 08:47:01;;;;;;;9.27;8.20;;;;;;;;;;5072411;28;20102;-80
2022/08/21 08:49:33;;;;;;;10.70;8.95;;;;;;;;;;5071920;28;20066;-78
2022/08/21 08:52:03;;;;;;;11.68;9.23;;;;;;;;;;5057730;28;20041;-78
2022/08/21 08:54:38;;;;;;;10.82;9.32;;;;;;;;;;5052348;28;20017;-79
2022/08/21 08:57:07;;;;;;;14.00;9.90;;;;;;;;;;5067185;28;20453;-80
2022/08/21 08:59:44;;;;;;;12.95;10.55;;;;;;;;;;5072142;28;20506;-79
2022/08/21 09:02:14;;;;;;;13.43;11.30;;;;;;;;;;5071908;28;20032;-75
2022/08/21 09:04:40;;;;;;;17.33;12.23;;;;;;;;;;5071968;28;20056;-81
2022/08/21 09:07:25;;;;;;;15.90;10.35;;;;;;;;;;5069127;28;20490;-80
2022/08/21 09:10:15;;;;;;;13.65;10.50;;;;;;;;;;5063134;28;20024;-79
2022/08/21 09:12:56;;;;;;;11.98;9.68;;;;;;;;;;5062021;28;20437;-74
2022/08/21 09:15:25;;;;;;;11.50;9.63;;;;;;;;;;5071912;28;20086;-79
2022/08/21 09:18:10;;;;;;;9.40;8.30;;;;;;;;;;5071835;28;20056;-77
2022/08/21 09:20:49;;;;;;;8.90;8.00;;;;;;;;;;5069037;28;20028;-77
2022/08/21 09:23:41;;;;;;;11.35;8.77;;;;;;;;;;5064649;28;20122;-75
2022/08/21 09:26:08;;;;;;;8.80;7.90;;;;;;;;;;5060883;28;20025;-79
2022/08/21 09:28:35;;;;;;;10.65;8.68;;;;;;;;;;5058998;28;20037;-80
2022/08/21 09:31:04;;;;;;;10.70;7.97;;;;;;;;;;5071663;28;20032;-77
2022/08/21 09:33:30;;;;;;;8.35;7.45;;;;;;;;;;5075577;28;20035;-81
2022/08/21 09:35:59;;;;;;;10.02;7.18;;;;;;;;;;5074376;28;20039;-80
2022/08/21 09:38:33;;;;;;;8.63;7.53;;;;;;;;;;5075757;28;20043;-80
2022/08/21 09:41:08;;;;;;;8.32;7.45;;;;;;;;;;5070367;28;20506;-77
2022/08/21 09:43:35;;;;;;;11.55;8.68;;;;;;;;;;5073390;28;20028;-80
2022/08/21 09:46:12;;;;;;;11.25;8.00;;;;;;;;;;5075202;28;20069;-81
2022/08/21 09:48:40;;;;;;;9.90;8.90;;;;;;;;;;5075814;28;20021;-81
2022/08/21 09:51:07;;;;;;;10.30;8.57;;;;;;;;;;5075256;28;20044;-80
2022/08/21 09:53:34;;;;;;;10.88;8.57;;;;;;;;;;5075832;28;20059;-77
2022/08/21 09:58:50;;;;;;;11.95;9.48;;;;;;;;;;5073552;28;20056;-80
2022/08/21 10:01:26;;;;;;;10.55;9.45;;;;;;;;;;5075518;28;20054;-81
2022/08/21 10:04:05;;;;;;;10.27;9.20;;;;;;;;;;5061808;28;20013;-80
2022/08/21 10:06:31;;;;;;;15.82;11.32;;;;;;;;;;5074944;28;20474;-79
2022/08/21 10:09:11;;;;;;;9.55;8.52;;;;;;;;;;5075229;28;20028;-78
2022/08/21 10:11:38;;;;;;;11.02;9.93;;;;;;;;;;5069558;28;20051;-75
2022/08/21 10:14:12;;;;;;;12.50;9.88;;;;;;;;;;5075395;28;20111;-78
2022/08/21 10:16:53;;;;;;;12.45;9.25;;;;;;;;;;5075084;28;20113;-78
2022/08/21 10:19:38;;;;;;;13.18;10.00;;;;;;;;;;5069880;28;20020;-80
2022/08/21 10:22:22;;;;;;;12.65;8.88;;;;;;;;;;5055016;28;20082;-78
2022/08/21 10:24:57;;;;;;;11.60;9.70;;;;;;;;;;5062309;28;20023;-77
2022/08/21 10:27:29;;;;;;;10.40;9.30;;;;;;;;;;5073866;28;20032;-75
2022/08/21 10:29:57;;;;;;;11.75;9.90;;;;;;;;;;5067901;28;20095;-82
2022/08/21 10:32:23;;;;;;;10.93;9.63;;;;;;;;;;5067689;28;20033;-77
2022/08/21 10:35:08;;;;;;;14.20;11.13;;;;;;;;;;5072781;28;20055;-74
2022/08/21 10:37:45;;;;;;;11.68;10.43;;;;;;;;;;5066796;28;20024;-74
2022/08/21 10:40:27;;;;;;;13.15;9.85;;;;;;;;;;5084812;28;20020;-74
2022/08/21 10:42:59;;;;;;;11.55;9.80;;;;;;;;;;5080191;28;20026;-80
2022/08/21 10:45:48;;;;;;;10.70;9.23;;;;;;;;;;5067258;28;20522;-85
2022/08/21 10:48:27;;;;;;;15.10;10.45;;;;;;;;;;5070793;28;20037;-77
2022/08/21 10:51:05;;;;;;;10.50;9.40;;;;;;;;;;5063367;28;20107;-75
2022/08/21 10:53:31;;;;;;;14.75;10.40;;;;;;;;;;5082627;28;20032;-75
2022/08/21 10:56:02;;;;;;;11.23;9.30;;;;;;;;;;5080323;28;20035;-76
2022/08/21 10:58:41;;;;;;;14.85;10.00;;;;;;;;;;5072200;28;20070;-74
2022/08/21 11:01:15;;;;;;;14.77;9.35;;;;;;;;;;5073880;28;20099;-75
2022/08/21 11:03:44;;;;;;;12.15;9.35;;;;;;;;;;5066199;28;20044;-77
2022/08/21 11:06:13;;;;;;;11.70;9.65;;;;;;;;;;5072000;28;20023;-75
2022/08/21 11:08:41;;;;;;;10.43;9.15;;;;;;;;;;5078592;28;20035;-75
2022/08/21 11:11:13;;;;;;;12.20;9.60;;;;;;;;;;5075282;28;20030;-77
2022/08/21 11:13:42;;;;;;;10.85;9.25;;;;;;;;;;5076152;28;20077;-75
2022/08/21 11:16:16;;;;;;;14.05;10.85;;;;;;;;;;5081687;28;20021;-75
2022/08/21 11:18:49;;;;;;;13.35;10.10;;;;;;;;;;5068410;28;20071;-76
2022/08/21 11:21:24;;;;;;;12.05;9.98;;;;;;;;;;5068969;28;20021;-75
2022/08/21 11:23:58;;;;;;;12.75;10.80;;;;;;;;;;5076635;28;20028;-74
2022/08/21 11:26:33;;;;;;;13.75;10.80;;;;;;;;;;5085261;28;20024;-76
2022/08/21 11:29:04;;;;;;;14.70;12.00;;;;;;;;;;5073395;28;20036;-74
2022/08/21 11:31:33;;;;;;;13.45;11.20;;;;;;;;;;5066441;28;20050;-71
2022/08/21 11:34:06;;;;;;;13.02;11.35;;;;;;;;;;5074997;28;20081;-74
2022/08/21 11:36:37;;;;;;;15.23;11.48;;;;;;;;;;5069495;28;20074;-75
2022/08/21 11:39:08;;;;;;;14.65;12.80;;;;;;;;;;5080299;28;20028;-75
2022/08/21 11:41:54;;;;;;;14.13;11.65;;;;;;;;;;5076851;28;20020;-74
2022/08/21 11:44:21;;;;;;;13.48;11.43;;;;;;;;;;5074937;28;20020;-74
2022/08/21 11:46:54;;;;;;;14.55;11.25;;;;;;;;;;5082533;28;20028;-74
2022/08/21 11:49:35;;;;;;;13.52;12.13;;;;;;;;;;5073285;28;20025;-81
2022/08/21 11:52:05;;;;;;;13.90;12.07;;;;;;;;;;5076571;28;20043;-80
2022/08/21 11:54:31;;;;;;;14.25;12.70;;;;;;;;;;5077148;28;20036;-78
2022/08/21 11:57:02;;;;;;;18.17;14.02;;;;;;;;;;5081133;28;20081;-79
2022/08/21 11:59:34;;;;;;;15.65;13.63;;;;;;;;;;5076542;28;20083;-78
2022/08/21 12:02:00;;;;;;;16.45;13.70;;;;;;;;;;5069114;28;20585;-78
2022/08/21 12:04:28;;;;;;;15.75;13.65;;;;;;;;;;5068293;28;20101;-76
2022/08/21 12:06:54;;;;;;;16.15;13.63;;;;;;;;;;5078834;28;20059;-76
2022/08/21 12:09:26;;;;;;;14.85;13.25;;;;;;;;;;5079577;28;20042;-76
2022/08/21 12:12:12;;;;;;;16.17;13.70;;;;;;;;;;5078559;28;20089;-70
2022/08/21 12:14:51;;;;;;;15.73;13.85;;;;;;;;;;5078185;28;20017;-76
2022/08/21 12:17:20;;;;;;;16.67;13.63;;;;;;;;;;5077632;28;20107;-71
2022/08/21 12:19:57;;;;;;;17.88;14.70;;;;;;;;;;5074399;28;20048;-71
2022/08/21 12:22:23;;;;;;;15.45;13.68;;;;;;;;;;5082841;28;20028;-72
2022/08/21 12:24:50;;;;;;;14.75;13.07;;;;;;;;;;5077566;28;20021;-70
2022/08/21 12:27:29;;;;;;;15.70;14.05;;;;;;;;;;5074474;28;20024;-77
2022/08/21 12:29:57;;;;;;;14.90;13.40;;;;;;;;;;5063204;28;20032;-78
2022/08/21 12:32:25;;;;;;;16.02;13.30;;;;;;;;;;5071302;28;20036;-77
2022/08/21 12:34:55;;;;;;;15.88;13.00;;;;;;;;;;5070335;28;20032;-78
2022/08/21 12:37:42;;;;;;;16.08;12.88;;;;;;;;;;5070195;28;20044;-78
2022/08/21 12:40:17;;;;;;;24.02;13.43;;;;;;;;;;5064520;28;20036;-74
2022/08/21 12:42:46;;;;;;;13.93;12.27;;;;;;;;;;5065586;28;20031;-73
2022/08/21 12:45:20;;;;;;;15.20;13.70;;;;;;;;;;5082740;28;20059;-74
2022/08/21 12:47:49;;;;;;;15.25;13.70;;;;;;;;;;5075948;28;20024;-70
2022/08/21 12:50:25;;;;;;;14.75;12.48;;;;;;;;;;5061070;28;20040;-71
2022/08/21 12:53:14;;;;;;;14.82;13.23;;;;;;;;;;5081096;28;20073;-71
2022/08/21 12:55:41;;;;;;;14.60;13.10;;;;;;;;;;5057634;28;20036;-70
2022/08/21 12:58:07;;;;;;;16.45;14.55;;;;;;;;;;5075576;28;20389;-75
2022/08/21 13:00:33;;;;;;;17.20;14.18;;;;;;;;;;5079153;28;20037;-74
2022/08/21 13:03:00;;;;;;;16.00;14.30;;;;;;;;;;5073722;28;20064;-75
2022/08/21 13:05:33;;;;;;;15.32;13.55;;;;;;;;;;5073721;28;20025;-70
2022/08/21 13:08:03;;;;;;;15.48;13.50;;;;;;;;;;5075735;28;20032;-74
2022/08/21 13:10:31;;;;;;;15.82;14.05;;;;;;;;;;5068796;28;20028;-70
2022/08/21 13:13:03;;;;;;;16.33;13.70;;;;;;;;;;5072751;28;20021;-70
2022/08/21 13:15:30;;;;;;;16.77;14.43;;;;;;;;;;5072522;28;20051;-69
2022/08/21 13:18:01;;;;;;;15.57;13.40;;;;;;;;;;5074840;28;20029;-69
2022/08/21 13:20:32;;;;;;;92.78;82.88;;;;;;;;;;5073740;28;20025;-73
2022/08/21 13:23:00;;;;;;;16.42;14.40;;;;;;;;;;5069307;28;20111;-71
2022/08/21 13:25:31;;;;;;;14.40;12.88;;;;;;;;;;5069958;28;20031;-71
2022/08/21 13:28:02;;;;;;;15.45;13.95;;;;;;;;;;5057837;28;20029;-71
2022/08/21 13:30:28;;;;;;;13.57;12.07;;;;;;;;;;5067462;28;20129;-73
2022/08/21 13:32:59;;;;;;;13.90;12.50;;;;;;;;;;5063103;28;20024;-70
2022/08/21 13:35:35;;;;;;;15.40;13.43;;;;;;;;;;5079508;28;20025;-81
2022/08/21 13:38:02;;;;;;;15.82;13.45;;;;;;;;;;5072852;28;20540;-77
2022/08/21 13:40:38;;;;;;;15.30;13.68;;;;;;;;;;5067994;28;20024;-80
2022/08/21 13:43:12;;;;;;;16.17;13.35;;;;;;;;;;5078421;28;20025;-72
2022/08/21 13:45:38;;;;;;;16.70;13.40;;;;;;;;;;5068977;28;20040;-72
2022/08/21 13:48:05;;;;;;;14.98;13.43;;;;;;;;;;5070662;28;20024;-78
2022/08/21 13:50:34;;;;;;;17.83;13.07;;;;;;;;;;5071515;28;20082;-79
2022/08/21 13:53:02;;;;;;;15.25;13.65;;;;;;;;;;5069480;28;20127;-78
2022/08/21 13:55:36;;;;;;;15.30;13.70;;;;;;;;;;5070750;28;20822;-74
2022/08/21 13:58:04;;;;;;;14.80;12.95;;;;;;;;;;5062605;28;20033;-86
2022/08/21 14:00:34;;;;;;;14.23;12.65;;;;;;;;;;5073663;28;20067;-77
2022/08/21 14:03:06;;;;;;;14.85;13.23;;;;;;;;;;5076288;28;20098;-74
2022/08/21 14:05:35;;;;;;;15.93;13.00;;;;;;;;;;5083902;28;20026;-79
2022/08/21 14:08:15;;;;;;;16.25;12.45;;;;;;;;;;5077786;28;20029;-82
2022/08/21 14:10:43;;;;;;;14.07;12.60;;;;;;;;;;5070033;28;20052;-77
2022/08/21 14:13:20;;;;;;;15.82;12.00;;;;;;;;;;5080442;28;20099;-79
2022/08/21 14:15:54;;;;;;;13.13;11.82;;;;;;;;;;5072838;28;20040;-77
2022/08/21 14:18:20;;;;;;;14.80;12.43;;;;;;;;;;5069512;28;20048;-80
2022/08/21 14:20:46;;;;;;;13.27;11.60;;;;;;;;;;5074668;28;20083;-80
2022/08/21 14:23:23;;;;;;;13.40;12.00;;;;;;;;;;5085056;28;20024;-76
2022/08/21 14:25:50;;;;;;;13.93;12.43;;;;;;;;;;5069138;28;20021;-73
2022/08/21 14:28:20;;;;;;;14.82;12.30;;;;;;;;;;5059181;28;20428;-73
2022/08/21 14:30:46;;;;;;;14.07;11.85;;;;;;;;;;5073431;28;20037;-77
2022/08/21 14:33:13;;;;;;;16.08;12.68;;;;;;;;;;5076255;28;20500;-77
2022/08/21 14:35:41;;;;;;;21.90;13.02;;;;;;;;;;5082213;28;20474;-80